Time;durP1;ratioP1;P1;durP2;ratioP2;P2;SDS_P1;SDS_P2;PMS_P1;PMS_P2;Temp;Humidity;BMP_temperature;BMP_pressure;BME280_temperature;BME280_humidity;BME280_pressure;Samples;Min_cycle;Max_cycle;Signal;HPM_P1;HPM_P2
2023/09/26 00:03:06;;;;;;;4.80;4.13;;;16.30;36.20;;;;;;10268439;28;20619;-71
2023/09/26 00:08:10;;;;;;;4.20;3.90;;;16.40;36.30;;;;;;10266221;28;20243;-71
2023/09/26 00:13:14;;;;;;;4.30;4.00;;;16.30;35.80;;;;;;10257553;28;20248;-71
2023/09/26 00:18:18;;;;;;;4.03;3.67;;;16.30;36.00;;;;;;10269457;28;20224;-71
2023/09/26 00:23:21;;;;;;;4.57;4.17;;;16.20;35.60;;;;;;10264468;28;20230;-71
2023/09/26 00:28:26;;;;;;;4.40;4.00;;;16.10;35.80;;;;;;10263932;28;20228;-71
2023/09/26 00:33:29;;;;;;;4.20;3.90;;;15.90;36.40;;;;;;10263063;28;20235;-71
2023/09/26 00:38:32;;;;;;;4.33;4.00;;;15.80;36.30;;;;;;10263416;28;20243;-71
2023/09/26 00:43:37;;;;;;;3.80;3.40;;;15.80;36.40;;;;;;10266565;28;21004;-71
2023/09/26 00:48:41;;;;;;;3.40;3.20;;;15.80;36.70;;;;;;10260944;28;20751;-71
2023/09/26 00:53:44;;;;;;;4.53;3.90;;;15.80;36.50;;;;;;10265408;28;20319;-71
2023/09/26 00:58:48;;;;;;;4.30;4.00;;;15.80;36.50;;;;;;10264581;28;20240;-71
2023/09/26 01:03:52;;;;;;;4.60;4.20;;;15.80;36.70;;;;;;10262980;28;20239;-71
2023/09/26 01:08:56;;;;;;;4.53;3.77;;;15.70;36.40;;;;;;10259434;28;20283;-71
2023/09/26 01:14:01;;;;;;;4.03;3.63;;;15.60;36.40;;;;;;10259896;28;20220;-71
2023/09/26 01:19:04;;;;;;;3.87;3.57;;;15.60;36.70;;;;;;10265190;28;20319;-71
2023/09/26 01:24:09;;;;;;;3.07;2.87;;;15.50;36.50;;;;;;10261837;28;20228;-71
2023/09/26 01:29:12;;;;;;;3.10;2.90;;;15.50;36.90;;;;;;10258752;28;20649;-71
2023/09/26 01:34:16;;;;;;;3.50;3.23;;;15.50;36.70;;;;;;10255819;28;20880;-71
2023/09/26 01:39:22;;;;;;;4.50;3.03;;;15.50;36.60;;;;;;10263704;28;20231;-71
2023/09/26 01:44:25;;;;;;;3.10;2.90;;;15.40;36.90;;;;;;10262651;28;20651;-71
2023/09/26 01:49:31;;;;;;;3.63;3.43;;;15.40;36.60;;;;;;10259786;28;21011;-71
2023/09/26 01:54:35;;;;;;;3.40;3.10;;;15.40;37.10;;;;;;10265694;28;20235;-71
2023/09/26 01:59:39;;;;;;;3.50;3.30;;;15.40;37.10;;;;;;10252768;28;20238;-71
2023/09/26 02:04:42;;;;;;;3.33;3.07;;;15.40;36.90;;;;;;10254699;28;20323;-71
2023/09/26 02:09:46;;;;;;;4.90;3.13;;;15.40;37.40;;;;;;10252157;28;20739;-72
2023/09/26 02:14:51;;;;;;;3.10;2.60;;;15.40;36.90;;;;;;10257866;28;20255;-71
2023/09/26 02:19:54;;;;;;;2.87;2.67;;;15.40;36.70;;;;;;10255599;28;20817;-72
2023/09/26 02:24:59;;;;;;;3.13;2.90;;;15.40;36.70;;;;;;10264663;28;20236;-71
2023/09/26 02:30:04;;;;;;;2.90;2.70;;;15.40;36.90;;;;;;10259182;28;20224;-72
2023/09/26 02:35:09;;;;;;;4.00;2.93;;;15.40;36.70;;;;;;10259851;28;20762;-71
2023/09/26 02:40:15;;;;;;;3.40;3.10;;;15.40;36.80;;;;;;10260108;28;20315;-71
2023/09/26 02:45:18;;;;;;;2.80;2.63;;;15.30;36.70;;;;;;10258981;28;20240;-72
2023/09/26 02:50:23;;;;;;;3.30;2.77;;;15.20;36.50;;;;;;10261601;28;21255;-71
2023/09/26 02:55:28;;;;;;;3.57;3.27;;;15.20;36.60;;;;;;10259722;28;20223;-71
2023/09/26 03:00:31;;;;;;;4.30;3.30;;;15.10;37.50;;;;;;10261816;28;20239;-71
2023/09/26 03:05:34;;;;;;;4.47;3.40;;;15.00;36.60;;;;;;10252418;28;20228;-71
2023/09/26 03:10:40;;;;;;;3.90;3.60;;;14.80;37.00;;;;;;10256451;28;20227;-72
2023/09/26 03:15:43;;;;;;;3.50;3.27;;;14.70;37.40;;;;;;10260061;28;20326;-71
2023/09/26 03:20:46;;;;;;;3.10;2.90;;;14.70;37.10;;;;;;10258339;28;20236;-72
2023/09/26 03:25:52;;;;;;;2.77;2.60;;;14.70;37.20;;;;;;10263798;28;20234;-72
2023/09/26 03:30:55;;;;;;;3.03;2.73;;;14.60;37.30;;;;;;10254962;28;20235;-72
2023/09/26 03:35:59;;;;;;;3.40;3.20;;;14.60;37.20;;;;;;10260974;28;20228;-72
2023/09/26 03:41:05;;;;;;;2.83;2.63;;;14.60;37.10;;;;;;10253909;28;20228;-72
2023/09/26 03:46:09;;;;;;;3.00;2.70;;;14.50;38.30;;;;;;10260818;28;20238;-72
2023/09/26 03:51:13;;;;;;;2.70;2.50;;;14.50;37.60;;;;;;10253792;28;20239;-71
2023/09/26 03:56:18;;;;;;;3.50;3.20;;;14.40;37.30;;;;;;10255938;28;20238;-71
2023/09/26 04:01:21;;;;;;;3.20;3.00;;;14.30;37.50;;;;;;10247381;28;20239;-71
2023/09/26 04:06:24;;;;;;;3.33;3.00;;;14.30;37.50;;;;;;10252804;28;20262;-72
2023/09/26 04:11:29;;;;;;;3.77;3.47;;;14.20;37.60;;;;;;10246526;28;20228;-71
2023/09/26 04:16:33;;;;;;;6.33;4.70;;;14.20;38.20;;;;;;10252072;28;20243;-71
2023/09/26 04:21:36;;;;;;;12.23;5.97;;;14.20;37.90;;;;;;10249780;28;20239;-71
2023/09/26 04:26:40;;;;;;;6.77;6.17;;;14.20;38.30;;;;;;10250107;28;21234;-71
2023/09/26 04:31:43;;;;;;;10.83;7.10;;;14.10;38.80;;;;;;10253347;28;20230;-71
2023/09/26 04:36:47;;;;;;;6.80;6.10;;;14.10;38.70;;;;;;10260976;28;20769;-71
2023/09/26 04:41:52;;;;;;;6.00;5.27;;;14.20;39.00;;;;;;10258535;28;20744;-71
2023/09/26 04:46:55;;;;;;;6.57;4.97;;;14.20;39.30;;;;;;10257726;28;20244;-71
2023/09/26 04:51:59;;;;;;;4.97;4.57;;;14.20;38.70;;;;;;10257261;28;20236;-71
2023/09/26 04:57:06;;;;;;;6.77;4.93;;;14.20;38.60;;;;;;10259297;28;20220;-72
2023/09/26 05:02:09;;;;;;;4.80;4.40;;;14.20;38.90;;;;;;10257662;28;20655;-72
2023/09/26 05:07:12;;;;;;;6.20;4.70;;;14.20;38.70;;;;;;10254849;28;20319;-71
2023/09/26 05:12:17;;;;;;;3.60;3.30;;;14.30;38.80;;;;;;10258465;28;20629;-71
2023/09/26 05:17:24;;;;;;;6.93;3.40;;;14.30;40.00;;;;;;10260157;28;20231;-72
2023/09/26 05:22:28;;;;;;;3.60;3.30;;;14.20;39.30;;;;;;10255846;28;20236;-75
2023/09/26 05:27:32;;;;;;;5.80;3.97;;;14.30;39.30;;;;;;10259817;28;20236;-73
2023/09/26 05:32:36;;;;;;;5.00;4.50;;;14.30;40.00;;;;;;10252652;28;20580;-73
2023/09/26 05:37:39;;;;;;;7.90;5.00;;;14.30;39.50;;;;;;10260238;28;20968;-73
2023/09/26 05:42:44;;;;;;;6.97;5.73;;;14.40;39.50;;;;;;10260324;28;20310;-73
2023/09/26 05:47:47;;;;;;;8.07;6.80;;;14.30;39.60;;;;;;10255256;28;20602;-72
2023/09/26 05:52:50;;;;;;;16.03;6.67;;;14.30;39.40;;;;;;10264508;28;20271;-72
2023/09/26 05:57:55;;;;;;;6.93;6.33;;;14.20;39.70;;;;;;10252836;28;20231;-72
2023/09/26 06:02:58;;;;;;;6.23;5.63;;;14.20;40.30;;;;;;10251615;28;20914;-72
2023/09/26 06:08:02;;;;;;;8.67;6.47;;;14.20;39.90;;;;;;10259322;28;20656;-73
2023/09/26 06:13:06;;;;;;;6.30;5.70;;;14.30;40.20;;;;;;10263619;28;20223;-72
2023/09/26 06:18:09;;;;;;;7.00;6.40;;;14.30;40.50;;;;;;10264055;28;20232;-72
2023/09/26 06:23:13;;;;;;;7.30;6.60;;;14.40;40.30;;;;;;10266086;28;20786;-75
2023/09/26 06:28:18;;;;;;;7.23;6.53;;;14.40;40.10;;;;;;10266855;28;20227;-75
2023/09/26 06:33:21;;;;;;;6.87;6.27;;;14.40;40.60;;;;;;10267191;28;21721;-75
2023/09/26 06:38:24;;;;;;;8.17;6.90;;;14.50;40.40;;;;;;10274612;28;20227;-75
2023/09/26 06:43:30;;;;;;;7.17;6.57;;;14.50;40.50;;;;;;10267663;28;20734;-75
2023/09/26 06:48:35;;;;;;;7.50;6.80;;;14.60;41.10;;;;;;10266824;28;20885;-75
2023/09/26 06:53:38;;;;;;;7.37;6.77;;;14.70;41.00;;;;;;10263827;28;20227;-75
2023/09/26 06:58:43;;;;;;;6.87;6.27;;;14.80;41.10;;;;;;10262967;28;20232;-75
2023/09/26 07:03:46;;;;;;;7.47;6.87;;;14.80;41.60;;;;;;10271345;28;20282;-75
2023/09/26 07:08:54;;;;;;;6.50;6.00;;;14.90;41.30;;;;;;10277479;28;20800;-75
2023/09/26 07:13:59;;;;;;;6.03;5.63;;;15.00;41.30;;;;;;10271567;28;20598;-75
2023/09/26 07:19:04;;;;;;;5.70;5.30;;;15.10;42.00;;;;;;10276022;28;20660;-75
2023/09/26 07:24:08;;;;;;;6.00;5.60;;;15.20;41.50;;;;;;10271560;28;20269;-75
2023/09/26 07:29:12;;;;;;;5.37;5.07;;;15.40;41.80;;;;;;10269628;28;20247;-75
2023/09/26 07:34:16;;;;;;;6.10;5.60;;;15.40;42.40;;;;;;10277460;28;20258;-75
2023/09/26 07:39:19;;;;;;;7.90;7.30;;;15.50;42.00;;;;;;10272087;28;20228;-75
2023/09/26 07:44:24;;;;;;;10.63;9.73;;;15.60;42.30;;;;;;10272532;28;20248;-75
2023/09/26 07:49:27;;;;;;;12.00;11.00;;;15.80;43.10;;;;;;10275226;28;20234;-75
2023/09/26 07:54:32;;;;;;;12.33;11.33;;;15.90;42.80;;;;;;10273845;28;20992;-75
2023/09/26 07:59:37;;;;;;;11.00;10.10;;;16.10;43.20;;;;;;10274742;28;20243;-74
2023/09/26 08:04:40;;;;;;;12.30;11.20;;;16.30;44.30;;;;;;10274124;28;20236;-74
2023/09/26 08:09:44;;;;;;;11.57;10.57;;;16.50;43.90;;;;;;10277520;28;20322;-74
2023/09/26 08:14:48;;;;;;;8.90;8.20;;;16.70;44.00;;;;;;10274869;28;20244;-74
2023/09/26 08:19:52;;;;;;;7.83;7.23;;;16.90;44.40;;;;;;10267542;28;20258;-75
2023/09/26 08:24:55;;;;;;;7.03;6.43;;;17.20;44.00;;;;;;10269634;28;20614;-75
2023/09/26 08:30:01;;;;;;;7.80;7.20;;;17.40;43.90;;;;;;10266199;28;20232;-74
2023/09/26 08:35:05;;;;;;;8.13;7.53;;;17.60;44.20;;;;;;10264526;28;20236;-74
2023/09/26 08:40:10;;;;;;;8.20;7.60;;;17.90;43.80;;;;;;10272074;28;20237;-74
2023/09/26 08:45:16;;;;;;;9.07;8.37;;;18.10;44.00;;;;;;10269134;28;20223;-75
2023/09/26 08:50:20;;;;;;;9.77;9.00;;;18.30;44.30;;;;;;10264073;28;20613;-74
2023/09/26 08:55:24;;;;;;;9.63;8.93;;;18.60;44.00;;;;;;10269029;28;20698;-73
2023/09/26 09:00:29;;;;;;;9.97;9.17;;;18.80;43.90;;;;;;10273336;28;20243;-73
2023/09/26 09:05:32;;;;;;;9.83;9.03;;;19.10;44.10;;;;;;10273381;28;20319;-73
2023/09/26 09:10:49;;;;;;;10.10;9.30;;;19.30;43.80;;;;;;10273111;28;20238;-73
2023/09/26 09:16:08;;;;;;;9.70;8.90;;;19.60;44.70;;;;;;10265717;28;20228;-72
2023/09/26 09:21:25;;;;;;;9.50;8.70;;;19.90;44.30;;;;;;10268340;28;20231;-73
2023/09/26 09:26:31;;;;;;;9.80;8.90;;;20.20;44.20;;;;;;10265345;28;20286;-74
2023/09/26 09:31:35;;;;;;;9.50;8.70;;;20.50;43.60;;;;;;10265768;28;20235;-73
2023/09/26 09:36:39;;;;;;;11.07;10.03;;;20.80;43.60;;;;;;10264984;28;20239;-74
2023/09/26 09:41:42;;;;;;;9.47;8.57;;;21.10;43.50;;;;;;10266874;28;20236;-74
2023/09/26 09:46:49;;;;;;;8.40;7.70;;;21.40;43.00;;;;;;10272035;28;20298;-74
2023/09/26 09:51:56;;;;;;;9.10;8.30;;;21.70;42.60;;;;;;10267877;28;20242;-73
2023/09/26 09:57:02;;;;;;;8.97;8.17;;;21.90;42.50;;;;;;10267378;28;20235;-74
2023/09/26 10:02:07;;;;;;;8.57;7.77;;;22.20;42.10;;;;;;10266149;28;20879;-73
2023/09/26 10:07:12;;;;;;;7.83;7.23;;;22.40;41.40;;;;;;10266881;28;20251;-74
2023/09/26 10:12:16;;;;;;;8.87;8.07;;;22.60;41.20;;;;;;10263540;28;20220;-74
2023/09/26 10:17:21;;;;;;;9.53;8.63;;;22.80;41.00;;;;;;10259059;28;20264;-74
2023/09/26 10:22:35;;;;;;;9.13;8.43;;;22.90;40.70;;;;;;10268162;28;20227;-74
2023/09/26 10:27:42;;;;;;;9.20;8.33;;;23.10;40.10;;;;;;10256047;28;20235;-74
2023/09/26 10:33:03;;;;;;;9.37;8.57;;;23.30;39.80;;;;;;10257234;28;21013;-74
2023/09/26 10:38:18;;;;;;;8.30;7.60;;;23.40;39.50;;;;;;10259063;28;20240;-75
2023/09/26 10:43:21;;;;;;;9.63;8.83;;;23.50;39.60;;;;;;10265598;28;20231;-73
2023/09/26 10:48:28;;;;;;;9.27;8.37;;;23.60;39.70;;;;;;10261052;28;20232;-73
2023/09/26 10:53:32;;;;;;;9.03;8.33;;;23.60;39.70;;;;;;10259453;28;20577;-72
2023/09/26 10:58:35;;;;;;;8.70;8.00;;;23.80;39.80;;;;;;10252792;28;20258;-73
2023/09/26 11:03:40;;;;;;;8.80;8.00;;;23.80;39.80;;;;;;10257995;28;20906;-73
2023/09/26 11:08:44;;;;;;;8.70;8.00;;;23.90;38.90;;;;;;10260307;28;20247;-73
2023/09/26 11:13:47;;;;;;;9.10;8.40;;;23.90;39.40;;;;;;10255015;28;23119;-73
2023/09/26 11:18:56;;;;;;;9.33;8.50;;;24.00;39.30;;;;;;10258760;28;20231;-73
2023/09/26 11:24:00;;;;;;;8.77;8.07;;;24.10;38.60;;;;;;10252026;28;20231;-73
2023/09/26 11:29:03;;;;;;;8.20;7.50;;;24.20;38.90;;;;;;10252988;28;20234;-73
2023/09/26 11:34:08;;;;;;;8.83;8.13;;;24.30;39.20;;;;;;10261897;28;20227;-73
2023/09/26 11:39:15;;;;;;;9.53;8.70;;;24.30;38.20;;;;;;10255875;28;20263;-73
2023/09/26 11:44:18;;;;;;;9.10;8.20;;;24.40;38.00;;;;;;10255590;28;20242;-73
2023/09/26 11:49:24;;;;;;;8.43;7.70;;;24.40;38.20;;;;;;10259771;28;20278;-73
2023/09/26 11:54:28;;;;;;;8.10;7.40;;;24.40;38.20;;;;;;10257798;28;20646;-74
2023/09/26 11:59:31;;;;;;;7.30;6.70;;;24.50;38.30;;;;;;10264046;28;20220;-74
2023/09/26 12:04:36;;;;;;;6.83;6.33;;;24.50;38.80;;;;;;10261746;28;20260;-73
2023/09/26 12:09:41;;;;;;;7.30;6.70;;;24.60;38.20;;;;;;10267177;28;20233;-71
2023/09/26 12:14:46;;;;;;;7.60;7.00;;;24.70;38.20;;;;;;10272012;28;20318;-71
2023/09/26 12:19:51;;;;;;;7.03;6.53;;;24.70;37.90;;;;;;10263869;28;20238;-71
2023/09/26 12:24:54;;;;;;;6.93;6.37;;;24.80;37.60;;;;;;10266624;28;20800;-73
2023/09/26 12:29:58;;;;;;;7.27;6.57;;;24.80;38.00;;;;;;10260316;28;20383;-73
2023/09/26 12:35:05;;;;;;;7.40;6.80;;;24.80;37.60;;;;;;10263518;28;20238;-80
2023/09/26 12:40:09;;;;;;;7.10;6.50;;;24.80;37.30;;;;;;10265982;28;20929;-77
2023/09/26 12:45:12;;;;;;;7.73;7.03;;;24.80;37.70;;;;;;10260533;28;20319;-74
2023/09/26 12:50:17;;;;;;;7.27;6.67;;;24.80;37.60;;;;;;10266516;28;20247;-74
2023/09/26 12:55:20;;;;;;;7.20;6.70;;;24.80;37.10;;;;;;10257441;28;20227;-74
2023/09/26 13:00:24;;;;;;;7.57;6.90;;;24.90;37.70;;;;;;10264126;28;20234;-74
2023/09/26 13:05:29;;;;;;;8.73;7.97;;;24.90;37.50;;;;;;10265254;28;20242;-74
2023/09/26 13:10:32;;;;;;;8.80;8.07;;;24.90;36.90;;;;;;10266618;28;20228;-74
2023/09/26 13:15:40;;;;;;;8.57;7.87;;;24.90;37.30;;;;;;10266412;28;20234;-74
2023/09/26 13:20:45;;;;;;;8.07;7.30;;;24.80;36.90;;;;;;10268158;28;20236;-73
2023/09/26 13:25:48;;;;;;;7.53;6.93;;;24.80;37.20;;;;;;10269333;28;20743;-73
2023/09/26 13:30:52;;;;;;;7.20;6.53;;;24.80;37.20;;;;;;10262783;28;20334;-74
2023/09/26 13:35:56;;;;;;;6.63;6.13;;;24.70;37.30;;;;;;10264711;28;20220;-74
2023/09/26 13:41:00;;;;;;;7.13;6.53;;;24.80;37.30;;;;;;10266610;28;20240;-74
2023/09/26 13:46:03;;;;;;;7.60;6.90;;;24.80;37.40;;;;;;10261239;28;20224;-75
2023/09/26 13:51:09;;;;;;;6.77;6.20;;;24.90;37.40;;;;;;10266587;28;20314;-74
2023/09/26 13:56:12;;;;;;;6.50;5.90;;;24.90;36.90;;;;;;10264382;28;20263;-79
2023/09/26 14:01:15;;;;;;;7.07;6.37;;;25.00;37.20;;;;;;10259883;28;20267;-78
2023/09/26 14:06:20;;;;;;;6.27;5.77;;;25.10;37.10;;;;;;10261930;28;20227;-74
2023/09/26 14:11:24;;;;;;;7.03;6.53;;;25.10;36.90;;;;;;10261336;28;20231;-73
2023/09/26 14:16:27;;;;;;;6.90;6.30;;;25.20;36.80;;;;;;10264429;28;20318;-74
2023/09/26 14:21:35;;;;;;;6.97;5.50;;;25.20;36.70;;;;;;10277824;28;20772;-74
2023/09/26 14:26:39;;;;;;;6.40;5.90;;;25.30;36.60;;;;;;10264448;28;20231;-74
2023/09/26 14:31:43;;;;;;;6.23;5.63;;;25.30;36.80;;;;;;10270678;28;20298;-74
2023/09/26 14:36:48;;;;;;;7.90;5.80;;;25.40;36.60;;;;;;10268369;28;20251;-74
2023/09/26 14:41:51;;;;;;;5.83;5.40;;;25.40;36.30;;;;;;10277691;28;20732;-74
2023/09/26 14:46:54;;;;;;;6.40;5.90;;;25.40;36.40;;;;;;10269360;28;20233;-75
2023/09/26 14:51:59;;;;;;;6.10;5.60;;;25.50;36.50;;;;;;10275978;28;20820;-74
2023/09/26 14:57:02;;;;;;;5.50;5.10;;;25.50;36.30;;;;;;10270195;28;20228;-75
2023/09/26 15:02:06;;;;;;;6.10;5.60;;;25.60;36.30;;;;;;10271084;28;20227;-74
2023/09/26 15:07:11;;;;;;;10.63;9.83;;;25.60;36.00;;;;;;10264809;28;20236;-75
2023/09/26 15:12:14;;;;;;;6.03;5.63;;;25.60;35.90;;;;;;10274702;28;20233;-72
2023/09/26 15:17:18;;;;;;;5.97;5.40;;;25.60;36.10;;;;;;10266885;28;20235;-74
2023/09/26 15:22:22;;;;;;;5.57;5.07;;;25.60;36.60;;;;;;10274101;28;20224;-74
2023/09/26 15:27:26;;;;;;;5.90;5.30;;;25.70;35.80;;;;;;10269599;28;20236;-73
2023/09/26 15:32:29;;;;;;;5.50;5.00;;;25.70;36.00;;;;;;10263714;28;20228;-74
2023/09/26 15:37:34;;;;;;;5.30;4.90;;;25.70;35.60;;;;;;10262459;28;20232;-73
2023/09/26 15:42:37;;;;;;;5.03;4.73;;;25.70;36.00;;;;;;10266097;28;20646;-74
2023/09/26 15:47:41;;;;;;;5.30;4.90;;;25.70;35.90;;;;;;10263460;28;20263;-74
2023/09/26 15:52:46;;;;;;;5.67;5.20;;;25.70;35.80;;;;;;10268471;28;20237;-73
2023/09/26 15:57:49;;;;;;;5.43;5.00;;;25.80;35.20;;;;;;10268588;28;20240;-73
2023/09/26 16:02:52;;;;;;;5.13;4.77;;;25.80;35.50;;;;;;10265189;28;20235;-73
2023/09/26 16:07:57;;;;;;;5.67;5.17;;;25.80;35.70;;;;;;10272145;28;20228;-73
2023/09/26 16:13:00;;;;;;;5.53;4.77;;;25.80;35.40;;;;;;10273366;28;20224;-75
2023/09/26 16:18:13;;;;;;;4.90;4.50;;;25.80;35.50;;;;;;10268566;28;20223;-73
2023/09/26 16:23:17;;;;;;;4.57;4.20;;;25.70;35.80;;;;;;10266822;28;20314;-74
2023/09/26 16:28:20;;;;;;;4.73;4.40;;;25.70;35.50;;;;;;10264416;28;20231;-72
2023/09/26 16:33:24;;;;;;;5.20;4.70;;;25.70;36.00;;;;;;10263718;28;20235;-74
2023/09/26 16:38:28;;;;;;;5.00;4.60;;;25.70;35.90;;;;;;10257538;28;20350;-74
2023/09/26 16:43:32;;;;;;;5.00;4.60;;;25.60;35.90;;;;;;10257348;28;20232;-74
2023/09/26 16:48:35;;;;;;;4.90;4.50;;;25.60;36.10;;;;;;10258808;28;20612;-74
2023/09/26 16:53:41;;;;;;;4.33;4.13;;;25.50;36.10;;;;;;10264750;28;20234;-74
2023/09/26 16:58:44;;;;;;;4.87;4.50;;;25.40;36.30;;;;;;10259333;28;20236;-75
2023/09/26 17:03:48;;;;;;;6.30;4.70;;;25.40;36.30;;;;;;10259651;28;20243;-76
2023/09/26 17:08:53;;;;;;;4.43;4.13;;;25.30;36.20;;;;;;10264854;28;20756;-74
2023/09/26 17:13:56;;;;;;;4.40;4.10;;;25.20;36.20;;;;;;10262357;28;20228;-75
2023/09/26 17:19:00;;;;;;;5.40;5.00;;;25.20;36.30;;;;;;10261310;28;20759;-75
2023/09/26 17:24:05;;;;;;;6.00;4.63;;;25.00;36.20;;;;;;10260236;28;20228;-74
2023/09/26 17:29:08;;;;;;;4.63;4.30;;;24.90;36.20;;;;;;10258910;28;20730;-74
2023/09/26 17:34:12;;;;;;;5.00;4.70;;;24.90;36.40;;;;;;10260624;28;20219;-75
2023/09/26 17:39:17;;;;;;;4.63;4.33;;;24.80;36.30;;;;;;10259919;28;20219;-75
2023/09/26 17:44:20;;;;;;;4.77;4.37;;;24.70;36.40;;;;;;10255726;28;21294;-75
2023/09/26 17:49:24;;;;;;;5.10;4.70;;;24.60;36.30;;;;;;10259412;28;20235;-75
2023/09/26 17:54:28;;;;;;;11.33;10.43;;;24.50;36.30;;;;;;10260003;28;20228;-75
2023/09/26 17:59:31;;;;;;;12.23;11.20;;;24.30;36.50;;;;;;10257407;28;20462;-75
2023/09/26 18:04:35;;;;;;;9.80;9.10;;;24.30;36.60;;;;;;10261771;28;20240;-75
2023/09/26 18:09:39;;;;;;;7.30;6.80;;;24.10;36.50;;;;;;10258567;28;20239;-75
2023/09/26 18:14:43;;;;;;;6.80;6.23;;;24.10;36.60;;;;;;10257057;28;20242;-75
2023/09/26 18:19:46;;;;;;;9.20;8.30;;;23.90;36.30;;;;;;10256058;28;21274;-75
2023/09/26 18:24:51;;;;;;;7.20;6.50;;;23.80;36.30;;;;;;10259757;28;20239;-75
2023/09/26 18:29:54;;;;;;;7.77;7.07;;;23.60;36.60;;;;;;10259336;28;20228;-74
2023/09/26 18:34:57;;;;;;;7.17;6.60;;;23.40;36.50;;;;;;10260816;28;20230;-74
2023/09/26 18:40:03;;;;;;;6.47;5.97;;;23.20;36.70;;;;;;10262320;28;20240;-71
2023/09/26 18:45:08;;;;;;;5.70;5.30;;;23.00;37.00;;;;;;10265523;28;20216;-71
2023/09/26 18:50:11;;;;;;;6.40;5.90;;;22.90;37.70;;;;;;10272140;28;20349;-71
2023/09/26 18:55:16;;;;;;;6.73;6.13;;;22.80;36.90;;;;;;10266817;28;20897;-72
2023/09/26 19:00:20;;;;;;;7.90;7.13;;;22.70;37.00;;;;;;10257756;28;20233;-71
2023/09/26 19:05:24;;;;;;;5.90;5.40;;;22.50;36.80;;;;;;10273218;28;20244;-75
2023/09/26 19:10:29;;;;;;;6.50;5.90;;;22.30;37.10;;;;;;10262824;28;20236;-74
2023/09/26 19:15:32;;;;;;;7.03;6.20;;;22.00;37.50;;;;;;10264798;28;20715;-75
2023/09/26 19:20:36;;;;;;;7.03;6.33;;;21.90;37.60;;;;;;10264685;28;20782;-75
2023/09/26 19:25:40;;;;;;;6.37;5.90;;;21.80;37.80;;;;;;10255843;28;20243;-74
2023/09/26 19:30:45;;;;;;;7.23;6.63;;;21.70;38.00;;;;;;10247673;28;20232;-75
2023/09/26 19:35:49;;;;;;;7.00;6.30;;;21.50;37.80;;;;;;10251480;28;20231;-75
2023/09/26 19:40:54;;;;;;;7.50;6.90;;;21.40;37.70;;;;;;10247443;28;20879;-74
2023/09/26 19:45:59;;;;;;;8.37;7.57;;;21.20;37.60;;;;;;10250190;28;20252;-71
2023/09/26 19:51:02;;;;;;;6.73;6.23;;;21.00;37.40;;;;;;10261808;28;20231;-71
2023/09/26 19:56:07;;;;;;;8.30;7.30;;;20.80;38.00;;;;;;10260153;28;20792;-71
2023/09/26 20:01:10;;;;;;;7.53;6.93;;;20.60;38.60;;;;;;10257170;28;20722;-71
2023/09/26 20:06:13;;;;;;;7.40;6.80;;;20.50;38.30;;;;;;10254958;28;20818;-71
2023/09/26 20:11:18;;;;;;;7.10;6.47;;;20.40;38.50;;;;;;10252858;28;20346;-74
2023/09/26 20:16:21;;;;;;;6.60;6.10;;;20.10;39.10;;;;;;10261482;28;21155;-74
2023/09/26 20:21:25;;;;;;;5.63;5.13;;;19.90;39.10;;;;;;10255346;28;20236;-75
2023/09/26 20:26:30;;;;;;;7.27;6.73;;;19.90;39.40;;;;;;10256648;28;20224;-74
2023/09/26 20:31:34;;;;;;;6.40;5.90;;;20.00;39.40;;;;;;10258296;28;20614;-75
2023/09/26 20:36:37;;;;;;;6.80;6.30;;;20.00;39.10;;;;;;10252956;28;20236;-75
2023/09/26 20:41:42;;;;;;;7.63;7.03;;;20.10;39.00;;;;;;10262641;28;20243;-74
2023/09/26 20:46:46;;;;;;;7.57;6.97;;;20.10;39.10;;;;;;10264047;28;20238;-71
2023/09/26 20:51:50;;;;;;;7.97;7.20;;;20.00;38.60;;;;;;10265763;28;20714;-71
2023/09/26 20:56:54;;;;;;;7.20;6.47;;;19.80;38.60;;;;;;10265986;28;20715;-75
2023/09/26 21:01:57;;;;;;;6.97;6.40;;;19.60;39.30;;;;;;10262800;28;20230;-74
2023/09/26 21:07:05;;;;;;;6.37;5.87;;;19.40;39.10;;;;;;10255892;28;20319;-73
2023/09/26 21:12:10;;;;;;;6.73;6.23;;;19.30;39.20;;;;;;10272006;28;20235;-73
2023/09/26 21:17:13;;;;;;;7.50;6.87;;;19.30;39.80;;;;;;10264447;28;20762;-73
2023/09/26 21:22:17;;;;;;;7.17;6.57;;;19.30;39.50;;;;;;10263997;28;23644;-73
2023/09/26 21:27:22;;;;;;;5.70;5.30;;;19.30;39.60;;;;;;10259268;28;20228;-73
2023/09/26 21:32:25;;;;;;;6.00;5.60;;;19.30;39.60;;;;;;10258567;28;20232;-74
2023/09/26 21:37:28;;;;;;;6.27;5.77;;;19.30;39.40;;;;;;10260040;28;20639;-74
2023/09/26 21:42:33;;;;;;;5.73;5.30;;;19.30;39.40;;;;;;10254530;28;20546;-74
2023/09/26 21:47:37;;;;;;;5.57;5.00;;;19.30;39.60;;;;;;10261232;28;20393;-70
2023/09/26 21:52:40;;;;;;;5.93;5.43;;;19.30;39.30;;;;;;10266600;28;20222;-70
2023/09/26 21:57:45;;;;;;;5.67;5.27;;;19.30;39.40;;;;;;10272476;28;20883;-70
2023/09/26 22:02:48;;;;;;;6.27;5.77;;;19.30;39.50;;;;;;10269794;28;20228;-70
2023/09/26 22:07:54;;;;;;;5.17;4.87;;;19.30;39.30;;;;;;10264453;28;20231;-74
2023/09/26 22:12:59;;;;;;;5.37;4.97;;;19.30;39.30;;;;;;10253609;28;20275;-75
2023/09/26 22:18:02;;;;;;;6.83;6.33;;;19.20;39.40;;;;;;10262087;28;20231;-74
2023/09/26 22:23:06;;;;;;;5.83;5.33;;;19.10;39.00;;;;;;10266714;28;20233;-74
2023/09/26 22:28:11;;;;;;;5.50;5.10;;;19.10;39.30;;;;;;10259009;28;20232;-74
2023/09/26 22:33:14;;;;;;;6.07;5.60;;;19.00;39.40;;;;;;10257571;28;20230;-73
2023/09/26 22:38:17;;;;;;;6.20;5.70;;;19.00;39.30;;;;;;10257107;28;20225;-71
2023/09/26 22:43:22;;;;;;;5.80;5.30;;;19.00;39.30;;;;;;10260595;28;20307;-71
2023/09/26 22:48:25;;;;;;;5.77;5.37;;;19.00;39.50;;;;;;10263645;28;20231;-71
2023/09/26 22:53:29;;;;;;;6.03;5.60;;;19.00;39.30;;;;;;10263725;28;20315;-71
2023/09/26 22:58:34;;;;;;;5.77;5.27;;;18.90;39.10;;;;;;10260576;28;20235;-70
2023/09/26 23:03:37;;;;;;;4.67;4.37;;;18.80;39.30;;;;;;10267007;28;20239;-70
2023/09/26 23:08:41;;;;;;;5.00;4.60;;;18.80;39.30;;;;;;10263080;28;20591;-71
2023/09/26 23:13:46;;;;;;;5.00;4.60;;;18.70;39.10;;;;;;10264827;28;20235;-75
2023/09/26 23:18:50;;;;;;;4.23;3.93;;;18.70;39.30;;;;;;10265172;28;20235;-74
2023/09/26 23:23:53;;;;;;;4.53;4.23;;;18.60;39.20;;;;;;10267648;28;20998;-74
2023/09/26 23:28:58;;;;;;;5.50;5.10;;;18.60;39.10;;;;;;10268009;28;22903;-74
2023/09/26 23:34:01;;;;;;;5.77;5.33;;;18.50;39.20;;;;;;10268915;28;20223;-74
2023/09/26 23:39:07;;;;;;;5.63;4.87;;;18.40;38.80;;;;;;10266461;28;20224;-73
2023/09/26 23:44:14;;;;;;;5.20;4.80;;;18.20;38.80;;;;;;10274225;28;20250;-71
2023/09/26 23:49:17;;;;;;;5.67;5.27;;;18.10;39.40;;;;;;10256745;28;20315;-71
2023/09/26 23:54:20;;;;;;;5.57;5.17;;;18.00;39.40;;;;;;10270452;28;20302;-71
2023/09/26 23:59:25;;;;;;;4.87;4.47;;;18.00;39.40;;;;;;10269221;28;20228;-71
